createdAt,value
2018-06-02T00:00:30.622Z,100854.27
2018-06-02T00:02:58.209Z,100865.62
2018-06-02T00:05:26.613Z,100864.61
2018-06-02T00:07:54.198Z,100861.59
2018-06-02T00:10:21.916Z,100860.39
2018-06-02T00:12:49.506Z,100858.41
2018-06-02T00:15:17.205Z,100857.67
2018-06-02T00:17:44.795Z,100860.84
2018-06-02T00:20:12.381Z,100863.39
2018-06-02T00:22:39.965Z,100861.31
2018-06-02T00:25:07.650Z,100856.11
2018-06-02T00:27:36.061Z,100860.41
2018-06-02T00:30:05.239Z,100859.90
2018-06-02T00:32:32.872Z,100858.33
2018-06-02T00:35:00.456Z,100849.20
2018-06-02T00:37:28.076Z,100852.85
2018-06-02T00:39:55.662Z,100853.60
2018-06-02T00:42:23.296Z,100854.34
2018-06-02T00:44:50.876Z,100856.67
2018-06-02T00:47:18.491Z,100858.92
2018-06-02T00:49:46.835Z,100861.66
2018-06-02T00:52:14.429Z,100866.89
2018-06-02T00:54:53.896Z,100870.79
2018-06-02T00:57:21.484Z,100874.15
2018-06-02T00:59:49.121Z,100872.91
2018-06-02T01:02:16.715Z,100873.99
2018-06-02T01:04:44.393Z,100874.91
2018-06-02T01:07:12.688Z,100875.22
2018-06-02T01:09:41.253Z,100868.84
2018-06-02T01:12:08.917Z,100872.40
2018-06-02T01:14:36.506Z,100871.84
2018-06-02T01:17:05.065Z,100877.56
2018-06-02T01:19:33.595Z,100870.66
2018-06-02T01:22:02.032Z,100878.02
2018-06-02T01:24:30.515Z,100872.72
2018-06-02T01:26:59.022Z,100872.47
2018-06-02T01:29:26.609Z,100873.41
2018-06-02T01:31:54.453Z,100873.89
2018-06-02T01:34:23.029Z,100864.54
2018-06-02T01:36:51.497Z,100861.78
2018-06-02T01:39:20.042Z,100867.86
2018-06-02T01:41:47.985Z,100865.45
2018-06-02T01:44:16.338Z,100867.52
2018-06-02T01:46:43.931Z,100864.79
2018-06-02T01:49:12.364Z,100868.49
2018-06-02T01:51:40.737Z,100865.62
2018-06-02T01:54:09.177Z,100863.28
2018-06-02T01:56:37.709Z,100866.94
2018-06-02T01:59:06.172Z,100866.88
2018-06-02T02:01:33.852Z,100867.36
2018-06-02T02:04:01.513Z,100863.11
2018-06-02T02:06:29.159Z,100872.57
2018-06-02T02:08:56.746Z,100874.07
2018-06-02T02:11:24.324Z,100877.87
2018-06-02T02:13:52.715Z,100881.13
2018-06-02T02:16:20.774Z,100879.30
2018-06-02T02:18:49.285Z,100878.47
2018-06-02T02:21:16.873Z,100881.19
2018-06-02T02:23:44.485Z,100879.05
2018-06-02T02:26:12.075Z,100878.53
2018-06-02T02:28:39.717Z,100884.67
2018-06-02T02:31:07.305Z,100884.75
2018-06-02T02:33:34.909Z,100889.81
2018-06-02T02:36:02.502Z,100885.69
2018-06-02T02:38:30.952Z,100889.00
2018-06-02T02:40:59.469Z,100890.75
2018-06-02T02:43:27.862Z,100882.09
2018-06-02T02:45:56.521Z,100873.83
2018-06-02T02:48:24.110Z,100877.65
2018-06-02T02:50:52.449Z,100881.36
2018-06-02T02:53:20.033Z,100877.48
2018-06-02T02:55:48.521Z,100883.27
2018-06-02T02:58:16.813Z,100886.09
2018-06-02T03:00:44.393Z,100885.53
2018-06-02T03:03:11.978Z,100889.58
2018-06-02T03:05:41.311Z,100888.84
2018-06-02T03:08:09.860Z,100888.25
2018-06-02T03:10:38.225Z,100896.38
2018-06-02T03:13:06.592Z,100898.53
2018-06-02T03:15:34.177Z,100901.11
2018-06-02T03:18:02.691Z,100898.88
2018-06-02T03:20:30.337Z,100900.89
2018-06-02T03:22:58.876Z,100894.59
2018-06-02T03:25:27.260Z,100898.80
2018-06-02T03:27:55.758Z,100903.10
2018-06-02T03:30:24.130Z,100899.13
2018-06-02T03:32:51.771Z,100910.65
2018-06-02T03:35:20.285Z,100907.09
2018-06-02T03:37:47.897Z,100901.71
2018-06-02T03:40:16.450Z,100906.19
2018-06-02T03:42:45.025Z,100907.68
2018-06-02T03:45:12.622Z,100905.77
2018-06-02T03:47:41.125Z,100907.25
2018-06-02T03:50:09.494Z,100897.25
2018-06-02T03:52:37.981Z,100905.28
2018-06-02T03:55:05.564Z,100911.19
2018-06-02T03:57:34.068Z,100912.58
2018-06-02T04:00:02.465Z,100912.27
2018-06-02T04:02:30.830Z,100909.86
2018-06-02T04:04:58.460Z,100915.59
2018-06-02T04:07:26.735Z,100911.12
2018-06-02T04:09:55.013Z,100918.39
2018-06-02T04:12:23.374Z,100907.38
2018-06-02T04:14:51.785Z,100914.09
2018-06-02T04:17:19.374Z,100907.28
2018-06-02T04:19:47.883Z,100911.67
2018-06-02T04:22:15.501Z,100903.14
2018-06-02T04:24:44.037Z,100904.13
2018-06-02T04:27:11.661Z,100915.51
2018-06-02T04:29:39.253Z,100912.91
2018-06-02T04:32:07.712Z,100915.66
2018-06-02T04:34:35.296Z,100913.34
2018-06-02T04:37:03.088Z,100914.41
2018-06-02T04:39:30.672Z,100915.17
2018-06-02T04:41:59.166Z,100912.17
2018-06-02T04:44:26.761Z,100912.25
2018-06-02T04:46:54.492Z,100915.92
2018-06-02T04:49:22.081Z,100914.98
2018-06-02T04:51:50.638Z,100920.72
2018-06-02T04:54:18.226Z,100925.79
2018-06-02T04:56:46.658Z,100923.77
2018-06-02T04:59:14.289Z,100932.92
2018-06-02T05:01:41.877Z,100935.01
2018-06-02T05:04:10.416Z,100925.70
2018-06-02T05:06:38.003Z,100925.12
2018-06-02T05:09:06.412Z,100928.36
2018-06-02T05:11:34.784Z,100932.43
2018-06-02T05:14:02.381Z,100935.00
2018-06-02T05:16:29.965Z,100932.23
2018-06-02T05:18:58.340Z,100936.41
2018-06-02T05:21:25.931Z,100941.47
2018-06-02T05:23:54.324Z,100944.53
2018-06-02T05:26:22.087Z,100948.27
2018-06-02T05:28:49.664Z,100950.34
2018-06-02T05:31:17.247Z,100953.76
2018-06-02T05:33:44.931Z,100957.57
2018-06-02T05:36:12.565Z,100952.66
2018-06-02T05:38:40.146Z,100954.98
2018-06-02T05:41:07.729Z,100952.99
2018-06-02T05:43:35.373Z,100947.77
2018-06-02T05:46:02.981Z,100956.41
2018-06-02T05:48:30.579Z,100958.15
2018-06-02T05:50:58.212Z,100954.70
2018-06-02T05:53:25.801Z,100959.13
2018-06-02T05:55:54.201Z,100957.11
2018-06-02T05:58:22.694Z,100951.06
2018-06-02T06:00:51.063Z,100948.73
2018-06-02T06:03:19.349Z,100950.06
2018-06-02T06:05:47.717Z,100945.59
2018-06-02T06:08:16.085Z,100950.89
2018-06-02T06:10:44.581Z,100952.47
2018-06-02T06:13:12.245Z,100948.25
2018-06-02T06:15:40.938Z,100953.22
2018-06-02T06:18:08.525Z,100956.53
2018-06-02T06:20:36.159Z,100952.19
2018-06-02T06:23:03.780Z,100954.59
2018-06-02T06:25:31.366Z,100961.83
2018-06-02T06:27:58.991Z,100954.34
2018-06-02T06:30:26.569Z,100962.16
2018-06-02T06:32:54.173Z,100950.57
2018-06-02T06:35:21.812Z,100949.68
2018-06-02T06:37:49.665Z,100948.81
2018-06-02T06:40:17.251Z,100952.91
2018-06-02T06:42:45.583Z,100953.15
2018-06-02T06:45:13.181Z,100947.98
2018-06-02T06:47:41.677Z,100946.22
2018-06-02T06:50:09.268Z,100947.28
2018-06-02T06:52:36.897Z,100947.33
2018-06-02T06:55:04.597Z,100942.44
2018-06-02T06:57:33.037Z,100948.14
2018-06-02T07:00:00.740Z,100941.70
2018-06-02T07:02:28.318Z,100944.08
2018-06-02T07:04:56.827Z,100959.14
2018-06-02T07:07:25.198Z,100947.05
2018-06-02T07:09:53.716Z,100949.45
2018-06-02T07:12:21.357Z,100953.33
2018-06-02T07:14:53.836Z,100950.17
2018-06-02T07:17:28.252Z,100962.38
2018-06-02T07:20:00.427Z,100959.03
2018-06-02T07:22:28.054Z,100963.47
2018-06-02T07:24:55.795Z,100961.83
2018-06-02T07:27:24.109Z,100969.84
2018-06-02T07:29:52.513Z,100961.91
2018-06-02T07:32:20.813Z,100960.09
2018-06-02T07:34:48.441Z,100968.70
2018-06-02T07:37:16.024Z,100970.60
2018-06-02T07:39:43.698Z,100972.55
2018-06-02T07:42:12.065Z,100970.86
2018-06-02T07:44:39.736Z,100973.38
2018-06-02T07:47:08.233Z,100980.60
2018-06-02T07:49:36.429Z,100977.80
2018-06-02T07:52:04.722Z,100983.17
2018-06-02T07:54:32.345Z,100985.02
2018-06-02T07:57:00.865Z,100981.73
2018-06-02T07:59:28.449Z,100982.98
2018-06-02T08:01:56.077Z,100979.13
2018-06-02T08:04:23.670Z,100990.18
2018-06-02T08:06:52.174Z,100986.55
2018-06-02T08:09:19.764Z,100991.22
2018-06-02T08:11:47.384Z,100984.36
2018-06-02T08:14:15.015Z,100986.63
2018-06-02T08:16:43.306Z,100991.99
2018-06-02T08:19:11.737Z,100985.49
2018-06-02T08:21:40.241Z,100993.63
2018-06-02T08:24:08.692Z,100997.72
2018-06-02T08:26:37.046Z,100999.46
2018-06-02T08:29:05.516Z,101006.77
2018-06-02T08:31:33.097Z,101006.63
2018-06-02T08:34:00.719Z,101009.06
2018-06-02T08:36:28.312Z,101007.83
2018-06-02T08:38:55.972Z,101005.16
2018-06-02T08:41:24.452Z,101009.78
2018-06-02T08:43:52.069Z,101009.81
2018-06-02T08:46:19.652Z,101005.23
2018-06-02T08:48:47.242Z,101012.12
2018-06-02T08:51:14.859Z,101014.00
2018-06-02T08:53:42.530Z,101015.75
2018-06-02T08:56:10.109Z,101013.80
2018-06-02T08:58:37.692Z,101016.28
2018-06-02T09:01:05.380Z,101019.33
2018-06-02T09:03:33.021Z,101012.53
2018-06-02T09:06:00.608Z,101018.45
2018-06-02T09:08:28.202Z,101018.30
2018-06-02T09:10:56.746Z,101021.99
2018-06-02T09:13:24.328Z,101020.63
2018-06-02T09:15:51.954Z,101022.94
2018-06-02T09:18:19.538Z,101022.02
2018-06-02T09:20:47.126Z,101019.25
2018-06-02T09:23:15.433Z,101018.14
2018-06-02T09:25:44.022Z,101020.95
2018-06-02T09:28:11.624Z,101012.62
2018-06-02T09:30:39.209Z,101012.33
2018-06-02T09:33:06.789Z,101011.69
2018-06-02T09:35:34.369Z,101017.95
2018-06-02T09:38:02.005Z,101015.59
2018-06-02T09:40:29.592Z,101010.05
2018-06-02T09:42:57.210Z,101020.22
2018-06-02T09:45:24.876Z,101017.01
2018-06-02T09:47:52.469Z,101015.32
2018-06-02T09:50:20.052Z,101010.47
2018-06-02T09:52:47.631Z,101009.58
2018-06-02T09:55:15.213Z,101007.09
2018-06-02T09:57:42.812Z,101006.80
2018-06-02T10:00:11.325Z,101009.79
2018-06-02T10:02:39.017Z,101004.41
2018-06-02T10:05:06.689Z,101004.92
2018-06-02T10:07:34.424Z,101003.08
2018-06-02T10:10:02.165Z,100999.26
2018-06-02T10:12:29.749Z,101000.67
2018-06-02T10:14:57.329Z,101005.07
2018-06-02T10:17:24.997Z,101002.26
2018-06-02T10:19:52.577Z,101005.84
2018-06-02T10:22:20.222Z,101006.55
2018-06-02T10:24:47.813Z,101001.39
2018-06-02T10:27:15.395Z,101002.52
2018-06-02T10:29:43.852Z,100996.39
2018-06-02T10:32:11.443Z,100987.55
2018-06-02T10:34:39.034Z,100990.59
2018-06-02T10:37:06.664Z,100999.25
2018-06-02T10:39:34.306Z,101000.39
2018-06-02T10:42:03.105Z,101002.33
2018-06-02T10:44:30.735Z,101005.34
2018-06-02T10:46:59.193Z,101006.37
2018-06-02T10:49:26.833Z,101000.00
2018-06-02T10:51:54.432Z,100997.80
2018-06-02T10:54:22.017Z,100998.81
2018-06-02T10:56:50.343Z,100995.25
2018-06-02T10:59:18.210Z,100985.14
2018-06-02T11:01:45.873Z,100984.41
2018-06-02T11:04:13.484Z,100998.03
2018-06-02T11:06:41.068Z,100997.87
2018-06-02T11:09:08.697Z,101000.41
2018-06-02T11:11:36.264Z,101006.22
2018-06-02T11:14:03.886Z,100996.13
2018-06-02T11:16:31.470Z,100998.88
2018-06-02T11:18:59.140Z,100998.98
2018-06-02T11:21:26.724Z,100988.64
2018-06-02T11:23:54.316Z,100992.38
2018-06-02T11:26:21.958Z,100987.37
2018-06-02T11:28:49.544Z,100985.64
2018-06-02T11:31:17.131Z,100990.45
2018-06-02T11:33:44.813Z,100985.08
2018-06-02T11:36:12.421Z,100978.04
2018-06-02T11:38:40.013Z,100980.53
2018-06-02T11:41:07.589Z,100974.47
2018-06-02T11:43:35.194Z,100979.56
2018-06-02T11:46:02.783Z,100970.79
2018-06-02T11:48:30.417Z,100975.66
2018-06-02T11:50:58.100Z,100974.35
2018-06-02T11:53:25.680Z,100975.48
2018-06-02T11:55:53.277Z,100984.16
2018-06-02T11:58:20.858Z,100979.38
2018-06-02T12:00:48.442Z,100980.56
2018-06-02T12:03:16.016Z,100983.52
2018-06-02T12:05:43.892Z,100979.50
2018-06-02T12:08:12.402Z,100978.73
2018-06-02T12:10:40.899Z,100973.13
2018-06-02T12:13:08.554Z,100975.36
2018-06-02T12:15:36.136Z,100975.69
2018-06-02T12:18:04.092Z,100978.19
2018-06-02T12:20:31.768Z,100968.87
2018-06-02T12:22:59.328Z,100971.19
2018-06-02T12:25:26.914Z,100968.13
2018-06-02T12:27:54.553Z,100948.47
2018-06-02T12:30:22.141Z,100950.95
2018-06-02T12:32:49.730Z,100949.31
2018-06-02T12:35:17.660Z,100951.34
2018-06-02T12:37:45.289Z,100950.48
2018-06-02T12:40:13.001Z,100947.97
2018-06-02T12:42:40.569Z,100964.98
2018-06-02T12:45:08.153Z,100958.44
2018-06-02T12:47:35.745Z,100963.81
2018-06-02T12:50:03.394Z,100953.55
2018-06-02T12:52:30.981Z,100955.55
2018-06-02T12:54:58.567Z,100958.46
2018-06-02T12:57:26.177Z,100956.73
2018-06-02T12:59:53.773Z,100960.06
2018-06-02T13:02:21.353Z,100957.27
2018-06-02T13:04:48.947Z,100970.77
2018-06-02T13:07:16.536Z,100976.14
2018-06-02T13:09:44.119Z,100972.94
2018-06-02T13:12:12.462Z,100969.86
2018-06-02T13:14:40.176Z,100965.05
2018-06-02T13:17:07.825Z,100948.37
2018-06-02T13:19:35.416Z,100953.95
2018-06-02T13:22:02.998Z,100946.41
2018-06-02T13:24:30.580Z,100944.07
2018-06-02T13:26:58.253Z,100946.86
2018-06-02T13:29:25.878Z,100943.47
2018-06-02T13:31:53.468Z,100958.48
2018-06-02T13:34:21.061Z,100958.08
2018-06-02T13:36:48.649Z,100968.30
2018-06-02T13:39:16.283Z,100964.48
2018-06-02T13:41:43.945Z,100967.19
2018-06-02T13:44:11.537Z,100963.52
2018-06-02T13:46:39.121Z,100966.56
2018-06-02T13:49:06.794Z,100964.98
2018-06-02T13:51:34.382Z,100965.02
2018-06-02T13:54:01.967Z,100963.86
2018-06-02T13:56:30.385Z,100961.67
2018-06-02T13:58:58.062Z,100968.06
2018-06-02T14:01:25.677Z,100960.49
2018-06-02T14:03:54.069Z,100958.63
2018-06-02T14:06:21.669Z,100961.84
2018-06-02T14:08:49.257Z,100955.28
2018-06-02T14:11:17.733Z,100975.16
2018-06-02T14:13:46.131Z,100974.13
2018-06-02T14:16:13.756Z,100970.20
2018-06-02T14:18:41.418Z,100968.87
2018-06-02T14:21:09.733Z,100976.75
2018-06-02T14:23:37.312Z,100974.65
2018-06-02T14:26:04.903Z,100975.59
2018-06-02T14:28:32.485Z,100975.29
2018-06-02T14:31:00.865Z,100967.21
2018-06-02T14:33:29.252Z,100967.83
2018-06-02T14:35:57.615Z,100959.37
2018-06-02T14:38:26.134Z,100957.38
2018-06-02T14:40:54.577Z,100946.77
2018-06-02T14:43:22.241Z,100941.99
2018-06-02T14:45:50.009Z,100944.52
2018-06-02T14:48:17.590Z,100937.48
2018-06-02T14:50:45.231Z,100933.69
2018-06-02T14:53:12.817Z,100930.64
2018-06-02T14:55:41.020Z,100940.00
2018-06-02T14:58:08.601Z,100945.45
2018-06-02T15:00:36.185Z,100942.84
2018-06-02T15:03:03.779Z,100941.09
2018-06-02T15:05:31.400Z,100944.52
2018-06-02T15:07:58.985Z,100944.03
2018-06-02T15:10:26.637Z,100943.95
2018-06-02T15:12:54.220Z,100942.58
2018-06-02T15:15:21.845Z,100946.10
2018-06-02T15:17:49.590Z,100955.58
2018-06-02T15:20:17.185Z,100954.66
2018-06-02T15:22:45.769Z,100958.47
2018-06-02T15:25:14.361Z,100951.58
2018-06-02T15:27:42.893Z,100957.18
2018-06-02T15:30:10.474Z,100954.82
2018-06-02T15:32:39.126Z,100949.63
2018-06-02T15:35:12.483Z,100946.00
2018-06-02T15:37:40.361Z,100942.22
2018-06-02T15:40:09.201Z,100939.94
2018-06-02T15:42:37.074Z,100939.25
2018-06-02T15:45:05.834Z,100942.06
2018-06-02T15:47:33.461Z,100944.05
2018-06-02T15:50:01.045Z,100950.71
2018-06-02T15:52:28.629Z,100960.12
2018-06-02T15:54:57.988Z,100966.66
2018-06-02T15:57:25.576Z,100978.66
2018-06-02T15:59:53.210Z,100969.86
2018-06-02T16:02:20.873Z,100971.51
2018-06-02T16:04:49.615Z,100969.91
2018-06-02T16:07:17.279Z,100974.19
2018-06-02T16:09:44.893Z,100971.41
2018-06-02T16:12:12.534Z,100972.91
2018-06-02T16:14:40.158Z,100972.38
2018-06-02T16:17:08.712Z,100974.84
2018-06-02T16:19:36.304Z,100965.34
2018-06-02T16:22:03.893Z,100965.83
2018-06-02T16:24:31.473Z,100965.10
2018-06-02T16:26:59.098Z,100964.48
2018-06-02T16:29:27.471Z,100969.43
2018-06-02T16:31:55.097Z,100974.20
2018-06-02T16:34:23.501Z,100978.30
2018-06-02T16:36:51.085Z,100981.80
2018-06-02T16:39:18.669Z,100983.91
2018-06-02T16:41:46.289Z,100988.73
2018-06-02T16:44:13.869Z,100986.77
2018-06-02T16:46:41.506Z,100995.47
2018-06-02T16:49:09.090Z,101000.52
2018-06-02T16:51:37.515Z,101002.53
2018-06-02T16:54:05.789Z,101000.52
2018-06-02T16:56:33.377Z,101002.02
2018-06-02T16:59:00.966Z,101007.86
2018-06-02T17:01:28.554Z,101001.59
2018-06-02T17:03:56.138Z,101003.64
2018-06-02T17:06:23.768Z,101010.38
2018-06-02T17:08:51.463Z,101009.32
2018-06-02T17:11:19.121Z,101010.13
2018-06-02T17:13:46.718Z,101009.56
2018-06-02T17:16:14.402Z,101011.76
2018-06-02T17:18:42.015Z,101014.11
2018-06-02T17:21:09.593Z,101003.18
2018-06-02T17:23:37.189Z,101016.03
2018-06-02T17:26:04.784Z,101011.22
2018-06-02T17:28:32.373Z,101012.00
2018-06-02T17:30:59.956Z,101014.16
2018-06-02T17:33:27.581Z,101004.53
2018-06-02T17:35:55.245Z,101012.95
2018-06-02T17:38:23.726Z,101007.34
2018-06-02T17:40:52.309Z,101010.35
2018-06-02T17:43:20.890Z,101008.84
2018-06-02T17:45:49.329Z,101023.47
2018-06-02T17:48:16.959Z,101026.86
2018-06-02T17:50:45.339Z,101017.38
2018-06-02T17:53:12.987Z,101022.61
2018-06-02T17:55:40.682Z,101025.56
2018-06-02T17:58:08.314Z,101033.86
2018-06-02T18:00:35.974Z,101046.94
2018-06-02T18:03:03.558Z,101062.57
2018-06-02T18:05:31.195Z,101057.41
2018-06-02T18:07:58.853Z,101060.56
2018-06-02T18:10:26.435Z,101059.10
2018-06-02T18:12:54.029Z,101058.23
2018-06-02T18:15:21.649Z,101055.20
2018-06-02T18:17:49.234Z,101054.25
2018-06-02T18:20:16.815Z,101059.78
2018-06-02T18:22:45.322Z,101057.87
2018-06-02T18:25:13.748Z,101052.08
2018-06-02T18:27:42.604Z,101051.09
2018-06-02T18:30:10.188Z,101036.89
2018-06-02T18:32:37.773Z,101044.68
2018-06-02T18:35:05.406Z,101042.41
2018-06-02T18:37:32.997Z,101036.35
2018-06-02T18:40:00.631Z,101043.05
2018-06-02T18:42:29.043Z,101045.48
2018-06-02T18:44:56.634Z,101048.11
2018-06-02T18:47:24.214Z,101048.25
2018-06-02T18:49:51.898Z,101060.09
2018-06-02T18:52:19.493Z,101060.05
2018-06-02T18:54:48.495Z,101061.95
2018-06-02T18:57:16.391Z,101062.61
2018-06-02T18:59:44.181Z,101064.31
2018-06-02T19:02:12.423Z,101061.02
2018-06-02T19:04:40.197Z,101068.02
2018-06-02T19:07:07.782Z,101067.97
2018-06-02T19:09:35.485Z,101065.11
2018-06-02T19:12:03.151Z,101073.52
2018-06-02T19:14:30.741Z,101065.34
2018-06-02T19:16:58.330Z,101060.23
2018-06-02T19:19:25.952Z,101063.19
2018-06-02T19:21:54.282Z,101057.41
2018-06-02T19:24:21.943Z,101060.16
2018-06-02T19:26:50.422Z,101055.17
2018-06-02T19:29:18.072Z,101056.94
2018-06-02T19:31:45.751Z,101055.89
2018-06-02T19:34:13.404Z,101058.45
2018-06-02T19:36:41.078Z,101057.81
2018-06-02T19:39:08.742Z,101055.95
2018-06-02T19:41:36.399Z,101064.44
2018-06-02T19:44:04.012Z,101069.86
2018-06-02T19:46:32.527Z,101077.11
2018-06-02T19:49:00.114Z,101071.31
2018-06-02T19:51:27.697Z,101084.17
2018-06-02T19:53:55.301Z,101078.56
2018-06-02T19:56:23.152Z,101075.81
2018-06-02T19:58:51.689Z,101074.32
2018-06-02T20:01:19.537Z,101078.06
2018-06-02T20:03:47.998Z,101089.38
2018-06-02T20:06:16.780Z,101081.83
2018-06-02T20:08:44.722Z,101085.41
2018-06-02T20:11:12.515Z,101082.42
2018-06-02T20:13:40.107Z,101085.58
2018-06-02T20:16:07.731Z,101080.58
2018-06-02T20:18:35.310Z,101077.00
2018-06-02T20:21:02.942Z,101075.28
2018-06-02T20:23:30.533Z,101077.44
2018-06-02T20:25:58.149Z,101080.75
2018-06-02T20:28:25.965Z,101075.59
2018-06-02T20:30:53.550Z,101073.44
2018-06-02T20:33:21.695Z,101065.14
2018-06-02T20:35:50.015Z,101067.88
2018-06-02T20:38:18.386Z,101071.04
2018-06-02T20:40:47.293Z,101068.28
2018-06-02T20:43:14.889Z,101066.63
2018-06-02T20:45:44.457Z,101068.30
2018-06-02T20:48:12.105Z,101066.70
2018-06-02T20:50:39.770Z,101068.04
2018-06-02T20:53:07.464Z,101066.22
2018-06-02T20:55:35.832Z,101064.05
2018-06-02T20:58:04.646Z,101071.03
2018-06-02T21:00:32.432Z,101072.64
2018-06-02T21:03:00.092Z,101062.27
2018-06-02T21:05:28.278Z,101069.66
2018-06-02T21:07:57.797Z,101071.41
2018-06-02T21:10:25.390Z,101065.22
2018-06-02T21:12:53.938Z,101072.28
2018-06-02T21:15:21.627Z,101072.54
2018-06-02T21:17:49.289Z,101072.47
2018-06-02T21:20:18.236Z,101082.84
2018-06-02T21:22:47.930Z,101079.59
2018-06-02T21:25:15.557Z,101088.14
2018-06-02T21:27:43.734Z,101080.10
2018-06-02T21:30:12.317Z,101086.41
2018-06-02T21:32:42.122Z,101095.31
2018-06-02T21:35:13.212Z,101095.56
2018-06-02T21:37:42.122Z,101095.13
2018-06-02T21:40:11.023Z,101097.05
2018-06-02T21:42:39.893Z,101099.87
2018-06-02T21:45:10.995Z,101100.55
2018-06-02T21:47:38.621Z,101100.55
2018-06-02T21:50:07.019Z,101098.20
2018-06-02T21:52:35.560Z,101092.33
2018-06-02T21:55:03.947Z,101109.03
2018-06-02T21:57:31.569Z,101105.53
2018-06-02T21:59:59.146Z,101104.02
2018-06-02T22:02:26.766Z,101106.70
2018-06-02T22:04:54.361Z,101111.02
2018-06-02T22:07:22.004Z,101112.17
2018-06-02T22:09:49.665Z,101113.61
2018-06-02T22:12:18.051Z,101115.66
2018-06-02T22:14:46.680Z,101120.55
2018-06-02T22:17:14.257Z,101122.48
2018-06-02T22:19:42.014Z,101122.88
2018-06-02T22:22:09.593Z,101126.14
2018-06-02T22:24:37.255Z,101130.45
2018-06-02T22:27:06.480Z,101133.58
2018-06-02T22:29:34.847Z,101124.52
2018-06-02T22:32:03.615Z,101129.77
2018-06-02T22:34:31.313Z,101131.25
2018-06-02T22:37:01.186Z,101134.64
2018-06-02T22:39:29.712Z,101135.23
2018-06-02T22:41:57.293Z,101133.07
2018-06-02T22:44:24.884Z,101137.73
2018-06-02T22:46:52.462Z,101133.41
2018-06-02T22:49:20.076Z,101133.95
2018-06-02T22:51:57.442Z,101128.19
2018-06-02T22:54:25.083Z,101131.58
2018-06-02T22:56:53.573Z,101131.09
2018-06-02T22:59:21.949Z,101131.17
2018-06-02T23:01:49.534Z,101133.83
2018-06-02T23:04:17.233Z,101139.22
2018-06-02T23:06:44.815Z,101142.53
2018-06-02T23:09:12.393Z,101146.28
2018-06-02T23:11:41.106Z,101142.72
2018-06-02T23:14:10.432Z,101147.95
2018-06-02T23:16:38.025Z,101151.91
2018-06-02T23:19:07.096Z,101145.62
2018-06-02T23:21:35.885Z,101154.98
2018-06-02T23:24:04.915Z,101150.94
2018-06-02T23:26:33.594Z,101147.20
2018-06-02T23:29:02.787Z,101142.72
2018-06-02T23:31:31.620Z,101143.22
2018-06-02T23:33:59.356Z,101148.45
2018-06-02T23:36:28.248Z,101137.64
2018-06-02T23:38:56.430Z,101139.05
2018-06-02T23:41:24.091Z,101136.47
2018-06-02T23:43:51.681Z,101139.79
2018-06-02T23:46:20.157Z,101134.47
2018-06-02T23:48:48.530Z,101135.56
2018-06-02T23:51:17.088Z,101136.72
2018-06-02T23:53:45.376Z,101129.91
2018-06-02T23:56:13.039Z,101132.80
2018-06-02T23:58:41.555Z,101131.48
